Home > Products > Valid Products > MTR

000
SAUS44 KLIX 310352
MTRBVE
METAR KBVE 310351Z AUTO 33004KT 10SM CLR 19/10 A3005 RMK AO2 SLP175
T01890100





000
SAUS44 KLIX 310252
MTRBVE
METAR KBVE 310251Z AUTO 30003KT 10SM CLR 16/12 A3004 RMK AO2 SLP173
T01610122 51005





000
SAUS44 KLIX 310152
MTRBVE
METAR KBVE 310151Z AUTO 00000KT 10SM CLR 18/12 A3004 RMK AO2 SLP171
T01780122





000
SAUS44 KLIX 310152
MTRBVE
METAR KBVE 310151Z AUTO 00000KT 10SM CLR 18/12 A3004 RMK AO2 SLP171
T01780122





000
SAUS44 KLIX 310052
MTRBVE
METAR KBVE 310051Z AUTO 00000KT 10SM CLR 18/11 A3004 RMK AO2 SLP171
T01830111





000
SAUS44 KLIX 302352
MTRBVE
METAR KBVE 302351Z AUTO 02003KT 10SM CLR 19/11 A3003 RMK AO2 SLP168
T01940106 10222 20194 50004





000
SAUS44 KLIX 302252
MTRBVE
METAR KBVE 302251Z AUTO 00000KT 10SM CLR 21/11 A3003 RMK AO2 SLP169
T02060106





000
SAUS44 KLIX 302152
MTRBVE
METAR KBVE 302151Z AUTO 02007KT 10SM CLR 21/09 A3002 RMK AO2 SLP165
T02110094





000
SAUS44 KLIX 302152
MTRBVE
METAR KBVE 302151Z AUTO 02007KT 10SM CLR 21/09 A3002 RMK AO2 SLP165
T02110094





000
SAUS44 KLIX 302052
MTRBVE
METAR KBVE 302051Z AUTO 03008KT 10SM CLR 22/11 A3002 RMK AO2 SLP164
T02170106 56017





000
SAUS44 KLIX 301952
MTRBVE
METAR KBVE 301951Z AUTO 03010G16KT 350V060 10SM CLR 22/11 A3003 RMK
AO2 SLP168 T02170111





000
SAUS44 KLIX 301852
MTRBVE
METAR KBVE 301851Z AUTO 03008KT 10SM CLR 22/12 A3005 RMK AO2 SLP174
T02220122





000
SAUS44 KLIX 301752
MTRBVE
METAR KBVE 301751Z AUTO 03010G17KT 10SM CLR 22/13 A3007 RMK AO2
SLP181 T02220128 10222 20200 58008





000
SAUS44 KLIX 301652
MTRBVE
METAR KBVE 301651Z AUTO 04009G18KT 10SM CLR 22/14 A3009 RMK AO2
SLP187 T02170139





000
SAUS44 KLIX 301652
MTRBVE
METAR KBVE 301651Z AUTO 04009G18KT 10SM CLR 22/14 A3009 RMK AO2
SLP187 T02170139





000
SAUS44 KLIX 301552
MTRBVE
METAR KBVE 301551Z AUTO 03010G18KT 10SM CLR 22/14 A3009 RMK AO2
SLP190 T02170139





000
SAUS44 KLIX 301452
MTRBVE
METAR KBVE 301451Z AUTO 04010G17KT 10SM CLR 21/14 A3009 RMK AO2
SLP190 T02110144 51014





000
SAUS44 KLIX 301352
MTRBVE
METAR KBVE 301351Z AUTO 02010G16KT 10SM CLR 21/14 A3008 RMK AO2
SLP186 T02110144





000
SAUS44 KLIX 301252
MTRBVE
METAR KBVE 301251Z AUTO 03009KT 10SM CLR 21/16 A3007 RMK AO2 SLP181
T02060156





000
SAUS44 KLIX 301152
MTRBVE
METAR KBVE 301151Z AUTO 03009KT 10SM FEW032 OVC065 21/16 A3005 RMK
AO2 SLP176 T02060156 10228 20206 53006





000
SAUS44 KLIX 301052
MTRBVE
METAR KBVE 301051Z AUTO 04009KT 10SM OVC080 21/15 A3004 RMK AO2
SLP172 T02060150





000
SAUS44 KLIX 301052
MTRBVE
METAR KBVE 301051Z AUTO 04009KT 10SM OVC080 21/15 A3004 RMK AO2
SLP172 T02060150





000
SAUS44 KLIX 301007
MTRBVE
SPECI KBVE 301006Z AUTO 04009G15KT 10SM SCT027 21/16 A3004 RMK AO2
T02060156





000
SAUS44 KLIX 300952
MTRBVE
METAR KBVE 300951Z AUTO 04010KT 10SM BKN026 21/16 A3004 RMK AO2
SLP171 T02060161





000
SAUS44 KLIX 300752
MTRBVE
METAR KBVE 300751Z AUTO 02009G15KT 10SM BKN024 21/17 A3003 RMK AO2
SLP169 T02110172





000
SAUS44 KLIX 300652
MTRBVE
METAR KBVE 300651Z AUTO 02010G16KT 10SM OVC020 22/18 A3004 RMK AO2
SLP171 T02170183





000
SAUS44 KLIX 300553
MTRBVE
METAR KBVE 300551Z AUTO 02010G16KT 10SM SCT016 OVC026 23/20 A3004
RMK AO2 SLP172 T02280200 10239 20228 402720217 55000





000
SAUS44 KLIX 300513
MTRBVE
SPECI KBVE 300512Z AUTO 03010KT 10SM SCT014 BKN025 BKN070 23/21
A3004 RMK AO2 T02280206





000
SAUS44 KLIX 300452
MTRBVE
METAR KBVE 300451Z AUTO 03008KT 10SM FEW025 FEW070 23/21 A3004 RMK
AO2 SLP172 T02280206





000
SAUS44 KLIX 300452
MTRBVE
METAR KBVE 300451Z AUTO 03008KT 10SM FEW025 FEW070 23/21 A3004 RMK
AO2 SLP172 T02280206





000
SAUS44 KLIX 300352
MTRBVE
METAR KBVE 300351Z AUTO 02007KT 10SM FEW021 FEW029 BKN060 23/21
A3004 RMK AO2 SLP173 T02330211





000
SAUS44 KLIX 300337
MTRBVE
SPECI KBVE 300335Z AUTO 03007KT 10SM FEW022 BKN029 24/21 A3004 RMK
AO2 T02390211





000
SAUS44 KLIX 300252
MTRBVE
METAR KBVE 300251Z AUTO 00000KT 10SM BKN034 OVC049 23/20 A3004 RMK
AO2 SLP172 T02330200 51006





000
SAUS44 KLIX 300152
MTRBVE
METAR KBVE 300151Z AUTO 00000KT 10SM BKN047 OVC065 23/20 A3003 RMK
AO2 SLP170 T02330200





000
SAUS44 KLIX 300052
MTRBVE
METAR KBVE 300051Z AUTO 00000KT 10SM FEW049 23/20 A3003 RMK AO2
SLP170 T02330200





000
SAUS44 KLIX 292352
MTRBVE
METAR KBVE 292351Z AUTO 00000KT 10SM CLR 24/20 A3002 RMK AO2 SLP165
T02390200 10272 20239 53002





000
SAUS44 KLIX 292252
MTRBVE
METAR KBVE 292251Z AUTO 00000KT 10SM CLR 26/19 A3002 RMK AO2 SLP164
T02610194





000
SAUS44 KLIX 292252
MTRBVE
METAR KBVE 292251Z AUTO 00000KT 10SM CLR 26/19 A3002 RMK AO2 SLP164
T02610194





000
SAUS44 KLIX 292152
MTRBVE
METAR KBVE 292151Z AUTO 00000KT 10SM CLR 27/20 A3001 RMK AO2 SLP162
T02670200





000
SAUS44 KLIX 292052
MTRBVE
METAR KBVE 292051Z AUTO 33006KT 10SM CLR 27/19 A3002 RMK AO2 SLP164
T02670194 56019





000
SAUS44 KLIX 291952
MTRBVE
METAR KBVE 291951Z AUTO 33006KT 10SM CLR 27/20 A3003 RMK AO2 SLP167
T02670200





000
SAUS44 KLIX 291852
MTRBVE
METAR KBVE 291851Z AUTO VRB04KT 10SM CLR 27/21 A3005 RMK AO2 SLP174
T02670211





000
SAUS44 KLIX 291752
MTRBVE
METAR KBVE 291751Z AUTO VRB05KT 10SM CLR 26/22 A3007 RMK AO2 SLP183
T02610217 10267 20217 58013





000
SAUS44 KLIX 291652
MTRBVE
METAR KBVE 291651Z AUTO VRB03KT 10SM CLR 26/22 A3010 RMK AO2 SLP192
T02610217





000
SAUS44 KLIX 291552
MTRBVE
METAR KBVE 291551Z AUTO VRB03KT 10SM CLR 26/22 A3011 RMK AO2 SLP197
T02610217





000
SAUS44 KLIX 291452
MTRBVE
METAR KBVE 291451Z AUTO 35005KT 10SM CLR 25/22 A3011 RMK AO2 SLP196
T02500222 53013





000
SAUS44 KLIX 291352
MTRBVE
METAR KBVE 291351Z AUTO 31004KT 10SM CLR 24/22 A3010 RMK AO2 SLP191
T02440222





000
SAUS44 KLIX 291252
MTRBVE
METAR KBVE 291251Z AUTO 00000KT 6SM BR CLR 22/21 A3008 RMK AO2
SLP186 T02170211





000
SAUS44 KLIX 291152
MTRBVE
METAR KBVE 291151Z AUTO 30003KT 9SM CLR 22/21 A3007 RMK AO2 SLP182
T02170211 10233 20217 53003





000
SAUS44 KLIX 291058
MTRBVE
METAR KBVE 291051Z AUTO 26003KT 10SM CLR 22/22 A3006 RMK AO2 SLP180
T02220217





000
SAUS44 KLIX 290952
MTRBVE
METAR KBVE 290951Z AUTO 28004KT 9SM CLR 22/21 A3006 RMK AO2 SLP180
T02220211





000
SAUS44 KLIX 290852
MTRBVE
METAR KBVE 290851Z AUTO 25004KT 10SM BKN080 23/22 A3006 RMK AO2
SLP180 T02330222 56003





000
SAUS44 KLIX 290752
MTRBVE
METAR KBVE 290751Z AUTO 24003KT 10SM CLR 23/22 A3006 RMK AO2 SLP180
T02330217





000
SAUS44 KLIX 290652
MTRBVE
METAR KBVE 290651Z AUTO 21005KT 10SM CLR 23/21 A3007 RMK AO2 SLP181
T02330211





000
SAUS44 KLIX 290552
MTRBVE
METAR KBVE 290551Z AUTO 00000KT 10SM SCT080 23/21 A3007 RMK AO2
SLP183 T02280206 10239 20217 402890206 56005





000
SAUS44 KLIX 290452
MTRBVE
METAR KBVE 290451Z AUTO 00000KT 10SM SCT080 BKN095 22/20 A3008 RMK
AO2 SLP184 T02170200





000
SAUS44 KLIX 290352
MTRBVE
METAR KBVE 290351Z AUTO 00000KT 10SM FEW095 22/20 A3008 RMK AO2
SLP185 T02220200





000
SAUS44 KLIX 290252
MTRBVE
METAR KBVE 290251Z AUTO 00000KT 10SM OVC085 23/20 A3009 RMK AO2
SLP188 T02280200 50005





000
SAUS44 KLIX 290152
MTRBVE
METAR KBVE 290151Z AUTO 13006KT 10SM OVC080 23/20 A3009 RMK AO2
SLP188 T02280200





000
SAUS44 KLIX 290052
MTRBVE
METAR KBVE 290051Z AUTO 13006KT 10SM BKN039 OVC080 23/21 A3009 RMK
AO2 SLP187 T02330206





000
SAUS44 KLIX 282352
MTRBVE
METAR KBVE 282351Z AUTO 13007KT 10SM OVC075 24/21 A3007 RMK AO2
SLP183 T02390206 10289 20239 53007





000
SAUS44 KLIX 282252
MTRBVE
METAR KBVE 282251Z AUTO 13006KT 10SM SCT032 OVC075 24/21 A3006 RMK
AO2 SLP179 T02440211





000
SAUS44 KLIX 282210
MTRBVE
SPECI KBVE 282209Z AUTO 11006KT 10SM FEW023 SCT033 BKN080 25/21
A3005 RMK AO2 T02500206





000
SAUS44 KLIX 282152
MTRBVE
METAR KBVE 282151Z AUTO 11005KT 10SM BKN023 BKN029 26/21 A3005 RMK
AO2 SLP177 T02560206





000
SAUS44 KLIX 282111
MTRBVE
SPECI KBVE 282110Z AUTO 07003KT 10SM BKN026 BKN034 26/22 A3005 RMK
AO2 T02610217





000
SAUS44 KLIX 282053
MTRBVE
METAR KBVE 282051Z AUTO 07005KT 10SM FEW030 SCT036 BKN080 26/22
A3005 RMK AO2 SLP176 T02560217 56012





000
SAUS44 KLIX 281952
MTRBVE
METAR KBVE 281951Z AUTO 05007KT 10SM OVC070 27/21 A3005 RMK AO2
SLP176 T02670211





000
SAUS44 KLIX 281852
MTRBVE
METAR KBVE 281851Z AUTO 00000KT 10SM CLR 28/18 A3007 RMK AO2 SLP181
T02830178





000
SAUS44 KLIX 281752
MTRBVE
METAR KBVE 281751Z AUTO VRB04KT 10SM CLR 28/19 A3009 RMK AO2 SLP188
T02780189 10283 20217 58002





000
SAUS44 KLIX 281652
MTRBVE
METAR KBVE 281651Z AUTO 16006KT 10SM FEW060 27/19 A3011 RMK AO2
SLP195 T02720189





000
SAUS44 KLIX 281652
MTRBVE
METAR KBVE 281651Z AUTO 16006KT 10SM FEW060 27/19 A3011 RMK AO2
SLP195 T02720189





000
SAUS44 KLIX 281553
MTRBVE
METAR KBVE 281551Z AUTO 10007KT 10SM CLR 27/21 A3011 RMK AO2 SLP196
T02670211





000
SAUS44 KLIX 281553
MTRBVE
METAR KBVE 281551Z AUTO 10007KT 10SM CLR 27/21 A3011 RMK AO2 SLP196
T02670211





000
SAUS44 KLIX 281456
MTRBVE
METAR KBVE 281451Z AUTO 12008KT 10SM CLR 26/21 A3010 RMK AO2 SLP191
T02560211 52013





000
SAUS44 KLIX 281356
MTRBVE
METAR KBVE 281351Z AUTO 11006KT 10SM SCT075 24/21 A3008 RMK AO2
SLP186 T02390206





000
SAUS44 KLIX 281252
MTRBVE
METAR KBVE 281251Z AUTO 10005KT 10SM FEW070 22/19 A3007 RMK AO2
SLP181 T02220194





000
SAUS44 KLIX 281152
MTRBVE
METAR KBVE 281151Z AUTO 11005KT 10SM SCT047 OVC060 22/19 A3006 RMK
AO2 SLP177 T02170194 10217 20206 52006





000
SAUS44 KLIX 281052
MTRBVE
METAR KBVE 281051Z AUTO 10004KT 10SM BKN055 BKN070 22/19 A3005 RMK
AO2 SLP175 T02170194





000
SAUS44 KLIX 280952
MTRBVE
METAR KBVE 280951Z AUTO 11005KT 10SM SCT065 22/19 A3005 RMK AO2
SLP174 T02170189





000
SAUS44 KLIX 280952
MTRBVE
METAR KBVE 280951Z AUTO 11005KT 10SM SCT065 22/19 A3005 RMK AO2
SLP174 T02170189





000
SAUS44 KLIX 280852
MTRBVE
METAR KBVE 280851Z AUTO 10003KT 10SM OVC065 21/19 A3004 RMK AO2
SLP171 T02110189 55004





000
SAUS44 KLIX 280752
MTRBVE
METAR KBVE 280751Z AUTO 11004KT 10SM CLR 21/19 A3004 RMK AO2 SLP170
T02110189





000
SAUS44 KLIX 280652
MTRBVE
METAR KBVE 280651Z AUTO 11004KT 10SM CLR 21/19 A3004 RMK AO2 SLP173
T02110189





000
SAUS44 KLIX 280552
MTRBVE
METAR KBVE 280551Z AUTO 11004KT 10SM CLR 21/18 A3005 RMK AO2 SLP175
T02110183 10228 20206 402720183 50000





000
SAUS44 KLIX 280452
MTRBVE
METAR KBVE 280451Z AUTO 12004KT 10SM CLR 21/19 A3005 RMK AO2 SLP175
T02110189





000
SAUS44 KLIX 280452
MTRBVE
METAR KBVE 280451Z AUTO 12004KT 10SM CLR 21/19 A3005 RMK AO2 SLP175
T02110189





    US Dept of Commerce
    National Oceanic and Atmospheric Administration
    National Weather Service
    1325 East West Highway
    Silver Spring, MD 20910
    Page Author: NWS Internet Services Team
Disclaimer
Information Quality
Credits
Glossary
Privacy Policy
Freedom of Information Act (FOIA)
About Us
Career Opportunities